Time;durP1;ratioP1;P1;durP2;ratioP2;P2;SDS_P1;SDS_P2;PMS_P1;PMS_P2;Temp;Humidity;BMP_temperature;BMP_pressure;BME280_temperature;BME280_humidity;BME280_pressure;Samples;Min_cycle;Max_cycle;Signal;HPM_P1;HPM_P2
2024/03/02 00:00:20;;;;;;;15.25;6.75;;;11.30;84.90;;;;;;4990380;28;112751;-50
2024/03/02 00:02:48;;;;;;;16.42;6.10;;;11.40;84.70;;;;;;4990274;28;112790;-50
2024/03/02 00:05:16;;;;;;;19.40;9.05;;;11.40;84.90;;;;;;4988893;28;113789;-54
2024/03/02 00:07:43;;;;;;;35.00;21.45;;;11.40;84.70;;;;;;4989216;28;113024;-51
2024/03/02 00:10:18;;;;;;;17.00;8.60;;;11.30;84.70;;;;;;4989141;28;112503;-50
2024/03/02 00:12:47;;;;;;;15.88;5.60;;;11.30;84.10;;;;;;4990098;28;112518;-50
2024/03/02 00:15:44;;;;;;;13.32;6.28;;;11.30;83.90;;;;;;4989078;28;113160;-50
2024/03/02 00:18:12;;;;;;;16.65;5.75;;;11.30;84.10;;;;;;4988607;28;112702;-50
2024/03/02 00:20:38;;;;;;;10.90;5.90;;;11.30;83.80;;;;;;4989771;28;112939;-54
2024/03/02 00:23:06;;;;;;;14.45;5.65;;;11.40;83.30;;;;;;4989447;28;112765;-51
2024/03/02 00:25:39;;;;;;;11.48;5.75;;;11.40;82.80;;;;;;4989021;28;113158;-55
2024/03/02 00:28:07;;;;;;;12.73;5.80;;;11.40;83.20;;;;;;4989590;28;112572;-49
2024/03/02 00:30:51;;;;;;;11.52;5.40;;;11.30;83.50;;;;;;5020963;27;112621;-50
2024/03/02 00:33:18;;;;;;;19.67;6.43;;;11.30;84.00;;;;;;4976751;28;112615;-52
2024/03/02 00:35:45;;;;;;;15.82;6.35;;;11.30;84.00;;;;;;4988091;28;113363;-50
2024/03/02 00:38:10;;;;;;;14.48;5.80;;;11.30;84.10;;;;;;4988779;28;113968;-50
2024/03/02 00:40:36;;;;;;;10.93;5.63;;;11.30;84.30;;;;;;4989661;28;112595;-49
2024/03/02 00:43:03;;;;;;;12.45;5.88;;;11.30;84.40;;;;;;4989695;28;112955;-52
2024/03/02 00:45:29;;;;;;;15.93;5.93;;;11.20;84.40;;;;;;4988209;28;114353;-50
2024/03/02 00:47:55;;;;;;;10.95;5.82;;;11.10;84.80;;;;;;4988751;28;112898;-50
2024/03/02 00:50:21;;;;;;;12.23;5.78;;;11.00;85.00;;;;;;4988119;28;112891;-50
2024/03/02 00:52:50;;;;;;;15.45;5.43;;;11.00;85.00;;;;;;4989641;28;113069;-53
2024/03/02 00:55:16;;;;;;;11.15;4.85;;;10.90;85.30;;;;;;4988333;28;114817;-52
2024/03/02 00:57:42;;;;;;;10.70;4.88;;;10.90;85.20;;;;;;4988443;28;113038;-53
2024/03/02 01:00:11;;;;;;;13.00;4.90;;;11.00;85.20;;;;;;4989511;28;113295;-50
2024/03/02 01:02:37;;;;;;;10.95;5.78;;;11.00;85.10;;;;;;4989300;28;112708;-50
2024/03/02 01:05:05;;;;;;;15.65;5.32;;;11.00;84.70;;;;;;4988212;28;114511;-51
2024/03/02 01:07:30;;;;;;;10.95;4.88;;;11.00;84.80;;;;;;4988044;28;112685;-51
2024/03/02 01:09:56;;;;;;;14.13;4.47;;;10.90;85.20;;;;;;4989367;28;112805;-50
2024/03/02 01:12:22;;;;;;;15.73;4.80;;;10.80;85.50;;;;;;4989316;28;112764;-50
2024/03/02 01:14:48;;;;;;;17.40;4.90;;;10.80;85.40;;;;;;4988099;28;113962;-50
2024/03/02 01:17:14;;;;;;;13.18;5.03;;;10.90;85.20;;;;;;4987898;28;113739;-50
2024/03/02 01:19:41;;;;;;;14.48;5.55;;;10.90;85.20;;;;;;4989053;28;112924;-54
2024/03/02 01:22:07;;;;;;;12.70;4.40;;;10.80;85.30;;;;;;4989057;28;112980;-51
2024/03/02 01:24:33;;;;;;;11.23;3.80;;;10.80;85.10;;;;;;4987650;28;114861;-51
2024/03/02 01:26:58;;;;;;;11.48;3.85;;;10.70;85.00;;;;;;4988351;28;113845;-52
2024/03/02 01:29:24;;;;;;;9.77;3.83;;;10.80;85.10;;;;;;4988613;28;112589;-51
2024/03/02 01:31:51;;;;;;;10.15;4.80;;;10.80;85.10;;;;;;4987429;28;112743;-49
2024/03/02 01:34:17;;;;;;;13.35;3.75;;;10.80;85.10;;;;;;4974766;28;113269;-53
2024/03/02 01:36:42;;;;;;;10.35;3.75;;;10.80;85.10;;;;;;4987394;28;113924;-52
2024/03/02 01:39:09;;;;;;;8.55;3.70;;;10.80;85.10;;;;;;4988596;28;112821;-50
2024/03/02 01:41:35;;;;;;;7.60;3.60;;;10.90;84.90;;;;;;4989010;28;112812;-52
2024/03/02 01:44:01;;;;;;;9.98;4.15;;;10.80;84.70;;;;;;4987760;28;113482;-52
2024/03/02 01:46:26;;;;;;;10.27;4.22;;;10.70;85.10;;;;;;4987635;28;113838;-51
2024/03/02 01:48:52;;;;;;;11.88;4.18;;;10.80;84.80;;;;;;4988821;28;112643;-50
2024/03/02 01:51:18;;;;;;;12.00;3.90;;;10.80;84.70;;;;;;4988547;28;112778;-50
2024/03/02 01:53:43;;;;;;;16.42;4.97;;;10.80;84.60;;;;;;4987144;28;114625;-50
2024/03/02 01:56:09;;;;;;;11.27;4.60;;;10.70;84.80;;;;;;5019112;27;113828;-50
2024/03/02 01:58:36;;;;;;;11.98;3.80;;;10.70;84.90;;;;;;4986985;28;112893;-56
2024/03/02 02:01:01;;;;;;;12.45;3.65;;;10.70;84.90;;;;;;4988507;28;112758;-54
2024/03/02 02:03:27;;;;;;;8.07;3.63;;;10.70;84.80;;;;;;4987235;28;114585;-51
2024/03/02 02:05:53;;;;;;;10.40;3.47;;;10.60;84.90;;;;;;4987866;28;113342;-50
2024/03/02 02:08:18;;;;;;;12.35;3.65;;;10.60;85.20;;;;;;4988079;28;112732;-51
2024/03/02 02:10:44;;;;;;;11.68;3.70;;;10.60;85.30;;;;;;4988449;28;112647;-50
2024/03/02 02:13:10;;;;;;;11.35;3.20;;;10.60;85.00;;;;;;4987160;28;114774;-50
2024/03/02 02:15:36;;;;;;;14.77;6.70;;;10.50;84.90;;;;;;4987109;28;113838;-50
2024/03/02 02:18:03;;;;;;;10.88;5.32;;;10.50;84.30;;;;;;4988509;28;112895;-50
2024/03/02 02:20:29;;;;;;;13.63;5.30;;;10.60;84.70;;;;;;4987809;28;112878;-52
2024/03/02 02:22:58;;;;;;;15.57;5.78;;;10.70;84.50;;;;;;4986682;28;114577;-51
2024/03/02 02:25:24;;;;;;;11.50;3.17;;;10.60;84.20;;;;;;4986870;28;113733;-50
2024/03/02 02:27:50;;;;;;;9.23;3.10;;;10.60;84.10;;;;;;4988704;28;112849;-51
2024/03/02 02:30:24;;;;;;;9.55;3.17;;;10.70;84.00;;;;;;4988040;28;112705;-51
2024/03/02 02:32:50;;;;;;;10.27;3.03;;;10.70;83.70;;;;;;4967541;28;113122;-53
2024/03/02 02:35:16;;;;;;;10.52;2.75;;;10.70;83.60;;;;;;4982419;28;112798;-52
2024/03/02 02:37:42;;;;;;;11.13;3.10;;;10.70;83.60;;;;;;4988387;28;113027;-52
2024/03/02 02:40:08;;;;;;;9.07;3.17;;;10.60;83.70;;;;;;4988100;28;112702;-51
2024/03/02 02:42:34;;;;;;;9.98;3.38;;;10.50;83.90;;;;;;4986863;28;113929;-54
2024/03/02 02:45:00;;;;;;;10.70;2.90;;;10.50;83.90;;;;;;4986657;28;113876;-53
2024/03/02 02:47:26;;;;;;;7.45;2.95;;;10.40;83.90;;;;;;4990710;28;112710;-50
2024/03/02 02:49:51;;;;;;;11.38;3.00;;;10.40;84.00;;;;;;4991546;28;112980;-50
2024/03/02 02:52:18;;;;;;;9.32;3.28;;;10.40;83.90;;;;;;4990179;28;113207;-55
2024/03/02 02:54:44;;;;;;;11.20;3.00;;;10.30;84.30;;;;;;4990206;28;113680;-52
2024/03/02 02:57:09;;;;;;;9.35;3.00;;;10.40;84.50;;;;;;4991433;28;112646;-50
2024/03/02 02:59:36;;;;;;;11.38;3.30;;;10.30;84.70;;;;;;4991451;28;112910;-50
2024/03/02 03:02:02;;;;;;;10.88;3.17;;;10.30;84.80;;;;;;4990253;28;115003;-50
2024/03/02 03:04:28;;;;;;;10.80;3.53;;;10.30;85.10;;;;;;4989990;28;112860;-50
2024/03/02 03:06:53;;;;;;;12.73;3.50;;;10.30;85.30;;;;;;4988691;28;112959;-51
2024/03/02 03:09:19;;;;;;;10.32;3.33;;;10.40;85.30;;;;;;4990841;28;113191;-52
2024/03/02 03:11:45;;;;;;;12.13;3.67;;;10.40;85.10;;;;;;4989839;28;113196;-53
2024/03/02 03:14:10;;;;;;;13.93;3.45;;;10.40;84.90;;;;;;4976154;28;112903;-51
2024/03/02 03:16:36;;;;;;;8.50;2.78;;;10.40;85.10;;;;;;4989757;28;112790;-50
2024/03/02 03:19:02;;;;;;;12.20;3.25;;;10.40;85.40;;;;;;4991142;28;112649;-49
2024/03/02 03:21:27;;;;;;;8.82;3.80;;;10.40;85.10;;;;;;4989995;28;113302;-49
2024/03/02 03:23:53;;;;;;;10.40;3.25;;;10.40;85.20;;;;;;5021913;28;113652;-50
2024/03/02 03:26:19;;;;;;;8.35;3.00;;;10.40;85.70;;;;;;4981448;28;112601;-50
2024/03/02 03:28:44;;;;;;;9.98;3.40;;;10.30;85.80;;;;;;4986641;28;112738;-53
2024/03/02 03:31:10;;;;;;;11.48;3.92;;;10.30;85.80;;;;;;4989700;28;113314;-51
2024/03/02 03:33:36;;;;;;;7.97;4.63;;;10.30;86.00;;;;;;4989717;28;112865;-53
2024/03/02 03:36:03;;;;;;;11.35;4.20;;;10.30;86.00;;;;;;4990761;28;112722;-50
2024/03/02 03:38:29;;;;;;;8.75;4.03;;;10.30;86.00;;;;;;4990604;28;112814;-51
2024/03/02 03:40:55;;;;;;;7.70;3.30;;;10.40;85.90;;;;;;4985875;28;114414;-49
2024/03/02 03:43:21;;;;;;;8.82;3.40;;;10.30;85.80;;;;;;4979323;28;112926;-50
2024/03/02 03:45:46;;;;;;;10.50;3.53;;;10.30;85.90;;;;;;5022802;28;112855;-49
2024/03/02 03:48:12;;;;;;;10.77;3.38;;;10.30;86.00;;;;;;4989146;28;112877;-51
2024/03/02 03:50:38;;;;;;;12.10;3.50;;;10.20;86.00;;;;;;4989470;28;114521;-51
2024/03/02 03:53:04;;;;;;;12.68;3.50;;;10.20;86.20;;;;;;4989313;28;112838;-50
2024/03/02 03:55:29;;;;;;;7.95;2.95;;;10.20;86.20;;;;;;4988916;28;112845;-49
2024/03/02 03:57:55;;;;;;;10.10;3.20;;;10.10;86.20;;;;;;4989482;28;112704;-49
2024/03/02 04:00:21;;;;;;;9.07;3.63;;;10.10;86.00;;;;;;4989267;28;114527;-51
2024/03/02 04:02:46;;;;;;;5.43;2.83;;;10.10;86.20;;;;;;4989022;28;114074;-54
2024/03/02 04:05:12;;;;;;;8.25;3.00;;;10.10;86.30;;;;;;4990821;28;112865;-50
2024/03/02 04:07:40;;;;;;;7.47;3.03;;;10.10;86.20;;;;;;4988952;28;112687;-49
2024/03/02 04:10:09;;;;;;;6.80;2.83;;;10.20;86.10;;;;;;4989085;28;113243;-49
2024/03/02 04:12:36;;;;;;;5.63;2.80;;;10.20;86.00;;;;;;4988915;28;112827;-50
2024/03/02 04:15:06;;;;;;;7.28;3.05;;;10.10;86.10;;;;;;4987353;28;113114;-53
2024/03/02 04:17:33;;;;;;;10.82;3.10;;;10.10;86.40;;;;;;4980032;28;112956;-50
2024/03/02 04:20:00;;;;;;;8.90;3.10;;;10.10;86.20;;;;;;4988757;28;113936;-50
2024/03/02 04:22:26;;;;;;;9.60;3.60;;;10.00;86.30;;;;;;4988993;28;112850;-49
2024/03/02 04:24:53;;;;;;;9.50;3.40;;;10.00;86.30;;;;;;4989769;28;112757;-50
2024/03/02 04:27:18;;;;;;;6.95;3.15;;;10.00;86.40;;;;;;4990643;28;112804;-49
2024/03/02 04:29:44;;;;;;;6.55;3.03;;;10.10;86.20;;;;;;4988726;28;113541;-50
2024/03/02 04:32:10;;;;;;;13.85;3.88;;;10.10;86.20;;;;;;4988307;28;112911;-50
2024/03/02 04:34:35;;;;;;;7.18;3.13;;;10.10;86.10;;;;;;4989652;28;112889;-49
2024/03/02 04:37:01;;;;;;;6.40;3.42;;;10.10;86.20;;;;;;4990022;28;113360;-49
2024/03/02 04:39:27;;;;;;;9.38;3.63;;;10.10;86.20;;;;;;4989054;28;114013;-49
2024/03/02 04:41:52;;;;;;;9.25;3.35;;;10.20;86.10;;;;;;4988716;28;112526;-49
2024/03/02 04:44:18;;;;;;;6.20;3.22;;;10.10;86.00;;;;;;4989518;28;112681;-50
2024/03/02 04:46:44;;;;;;;9.13;3.08;;;10.10;85.90;;;;;;4989424;28;112691;-50
2024/03/02 04:49:09;;;;;;;10.43;3.22;;;10.20;85.90;;;;;;4988435;28;113721;-49
2024/03/02 04:51:35;;;;;;;6.28;3.00;;;10.20;85.80;;;;;;4988468;28;114594;-50
2024/03/02 04:54:01;;;;;;;8.23;3.50;;;10.30;85.80;;;;;;4989612;28;112581;-50
2024/03/02 04:56:40;;;;;;;9.63;3.47;;;10.30;85.70;;;;;;4989735;28;113142;-51
2024/03/02 04:59:06;;;;;;;13.05;3.70;;;10.30;85.70;;;;;;4988523;28;113651;-51
2024/03/02 05:01:33;;;;;;;6.68;3.30;;;10.30;85.90;;;;;;4988428;28;112939;-49
2024/03/02 05:03:59;;;;;;;7.20;3.13;;;10.20;85.90;;;;;;4989482;28;112848;-50
2024/03/02 05:06:24;;;;;;;7.72;3.33;;;10.20;86.00;;;;;;4989513;28;112745;-49
2024/03/02 05:08:50;;;;;;;6.05;2.90;;;10.30;86.00;;;;;;4988013;28;113328;-53
2024/03/02 05:14:00;;;;;;;6.30;3.40;;;10.20;86.10;;;;;;4989323;28;112577;-49
2024/03/02 05:16:25;;;;;;;10.60;4.07;;;10.30;86.20;;;;;;4975242;28;112669;-50
2024/03/02 05:18:51;;;;;;;9.52;3.92;;;10.30;85.90;;;;;;4988391;28;113770;-50
2024/03/02 05:21:17;;;;;;;11.07;3.90;;;10.30;85.90;;;;;;4988249;28;112989;-51
2024/03/02 05:23:42;;;;;;;8.15;3.85;;;10.30;86.10;;;;;;4989088;28;112725;-50
2024/03/02 05:26:09;;;;;;;8.43;4.55;;;10.30;86.30;;;;;;4988993;28;112915;-54
2024/03/02 05:28:36;;;;;;;8.65;3.70;;;10.30;86.30;;;;;;4988427;28;115153;-53
2024/03/02 05:31:02;;;;;;;11.63;4.20;;;10.40;86.20;;;;;;4987725;28;112699;-54
2024/03/02 05:33:29;;;;;;;9.98;3.88;;;10.40;86.10;;;;;;4988814;28;112588;-50
2024/03/02 05:35:55;;;;;;;8.05;4.00;;;10.40;86.10;;;;;;4988636;28;112927;-49
2024/03/02 05:38:21;;;;;;;10.77;4.43;;;10.30;86.40;;;;;;4987757;28;114485;-51
2024/03/02 05:40:47;;;;;;;9.88;4.53;;;10.30;86.40;;;;;;4987627;28;114301;-50
2024/03/02 05:43:13;;;;;;;10.32;4.10;;;10.30;86.40;;;;;;4988909;28;112756;-53
2024/03/02 05:45:39;;;;;;;12.75;5.50;;;10.30;86.40;;;;;;4988815;28;112841;-51
2024/03/02 05:48:07;;;;;;;12.15;5.30;;;10.30;86.60;;;;;;4987693;28;114027;-50
2024/03/02 05:50:33;;;;;;;8.27;5.00;;;10.30;86.50;;;;;;4987299;28;114002;-49
2024/03/02 05:52:58;;;;;;;9.38;4.93;;;10.30;86.40;;;;;;4988609;28;112857;-49
2024/03/02 05:55:24;;;;;;;9.38;4.65;;;10.10;86.70;;;;;;4988462;28;112798;-50
2024/03/02 06:00:48;;;;;;;11.55;6.20;;;10.40;86.30;;;;;;4967565;28;112869;-51
2024/03/02 06:03:14;;;;;;;13.50;6.25;;;10.40;86.10;;;;;;4988488;28;112870;-50
2024/03/02 06:05:40;;;;;;;9.20;5.22;;;10.40;85.80;;;;;;4988190;28;112773;-51
2024/03/02 06:08:07;;;;;;;11.57;4.97;;;10.40;85.90;;;;;;4987305;28;114492;-51
2024/03/02 06:10:32;;;;;;;14.13;5.00;;;10.40;85.60;;;;;;4987193;28;114065;-50
2024/03/02 06:12:59;;;;;;;10.38;5.03;;;10.40;85.80;;;;;;4988239;28;112668;-49
2024/03/02 06:15:24;;;;;;;15.63;5.13;;;10.40;85.80;;;;;;4981816;28;112773;-50
2024/03/02 06:17:50;;;;;;;12.82;4.68;;;10.60;85.40;;;;;;4980066;28;114001;-49
2024/03/02 06:20:16;;;;;;;11.80;5.10;;;10.60;85.50;;;;;;4987078;28;112970;-51
2024/03/02 06:22:41;;;;;;;9.90;4.65;;;10.70;85.00;;;;;;4988041;28;112759;-52
2024/03/02 06:25:07;;;;;;;8.40;4.57;;;10.70;84.90;;;;;;4988365;28;113592;-50
2024/03/02 06:27:33;;;;;;;10.05;4.50;;;10.70;84.90;;;;;;4987481;28;114463;-52
2024/03/02 06:29:59;;;;;;;10.00;5.68;;;10.80;84.80;;;;;;4986448;28;113441;-50
2024/03/02 06:32:26;;;;;;;10.40;5.20;;;10.80;84.60;;;;;;4988129;28;112917;-55
2024/03/02 06:34:51;;;;;;;8.25;4.43;;;10.80;84.60;;;;;;4988128;28;112702;-51
2024/03/02 06:37:17;;;;;;;11.85;5.20;;;10.90;84.10;;;;;;4986733;28;114516;-50
2024/03/02 06:39:44;;;;;;;8.20;4.93;;;10.80;84.40;;;;;;4987060;28;112900;-50
2024/03/02 06:42:09;;;;;;;10.20;4.50;;;10.80;84.50;;;;;;4987785;28;112625;-52
2024/03/02 06:44:35;;;;;;;10.25;4.57;;;10.90;84.00;;;;;;4987844;28;113133;-52
2024/03/02 06:47:00;;;;;;;12.55;4.80;;;10.90;83.60;;;;;;4986726;28;114828;-52
2024/03/02 06:49:26;;;;;;;10.90;4.70;;;10.90;83.40;;;;;;4986752;28;113592;-51
2024/03/02 06:51:52;;;;;;;7.60;4.53;;;10.90;83.30;;;;;;4987855;28;112813;-50
2024/03/02 06:54:17;;;;;;;9.50;4.60;;;10.90;83.40;;;;;;4987664;28;112786;-52
2024/03/02 06:56:43;;;;;;;9.40;4.35;;;11.00;83.40;;;;;;4986847;28;113390;-50
2024/03/02 06:59:09;;;;;;;10.07;4.97;;;11.10;83.20;;;;;;4986382;28;113983;-52
2024/03/02 07:01:34;;;;;;;15.45;6.68;;;11.10;83.60;;;;;;4987757;28;112588;-50
2024/03/02 07:04:00;;;;;;;10.75;5.28;;;11.10;84.00;;;;;;4987471;28;112867;-52
2024/03/02 07:06:26;;;;;;;13.65;5.15;;;11.00;84.20;;;;;;4986542;28;114220;-50
2024/03/02 07:08:51;;;;;;;12.77;4.70;;;10.90;84.70;;;;;;4986768;28;112749;-49
2024/03/02 07:11:17;;;;;;;10.30;4.72;;;10.80;84.80;;;;;;4987587;28;112985;-52
2024/03/02 07:13:43;;;;;;;12.25;5.20;;;10.70;85.50;;;;;;4987501;28;112823;-52
2024/03/02 07:18:53;;;;;;;8.57;5.07;;;10.70;85.50;;;;;;4973734;28;112831;-49
2024/03/02 07:21:18;;;;;;;11.07;5.57;;;10.70;86.10;;;;;;4987602;28;112837;-50
2024/03/02 07:23:44;;;;;;;14.45;5.32;;;10.70;85.90;;;;;;4987145;28;112731;-51
2024/03/02 07:26:10;;;;;;;11.20;5.72;;;10.80;86.00;;;;;;4986356;28;113148;-49
2024/03/02 07:28:36;;;;;;;8.73;5.43;;;10.80;85.70;;;;;;4986445;28;114549;-50
2024/03/02 07:31:04;;;;;;;8.95;5.00;;;10.80;86.10;;;;;;4987273;28;112782;-54
2024/03/02 07:33:30;;;;;;;8.82;6.05;;;10.80;86.50;;;;;;4988320;28;113057;-50
2024/03/02 07:35:59;;;;;;;9.52;4.80;;;10.90;86.00;;;;;;4989701;28;114563;-50
2024/03/02 07:38:24;;;;;;;12.63;4.80;;;10.90;86.10;;;;;;4979063;28;113752;-50
2024/03/02 07:40:50;;;;;;;11.82;4.85;;;11.00;85.80;;;;;;4974667;28;113211;-50
2024/03/02 07:43:17;;;;;;;8.85;4.80;;;11.00;85.70;;;;;;4975416;28;112781;-49
2024/03/02 07:45:43;;;;;;;10.60;4.72;;;11.10;85.50;;;;;;4976023;28;113427;-49
2024/03/02 07:48:09;;;;;;;11.40;5.40;;;11.10;85.60;;;;;;4976910;28;112839;-50
2024/03/02 07:50:35;;;;;;;8.07;4.47;;;11.10;85.60;;;;;;4981574;28;112659;-49
2024/03/02 07:53:04;;;;;;;8.95;4.75;;;11.20;85.50;;;;;;4980964;28;113159;-50
2024/03/02 07:55:30;;;;;;;10.85;4.57;;;11.40;85.10;;;;;;4984431;28;114403;-52
2024/03/02 07:57:56;;;;;;;9.98;5.03;;;11.40;85.10;;;;;;4979845;28;113943;-50
2024/03/02 08:00:23;;;;;;;10.45;5.43;;;11.50;84.80;;;;;;4970272;28;112689;-50
2024/03/02 08:02:50;;;;;;;10.55;5.63;;;11.50;84.90;;;;;;4970148;28;112737;-49
2024/03/02 08:05:18;;;;;;;8.93;4.70;;;11.50;84.70;;;;;;4969382;28;113253;-50
2024/03/02 08:07:45;;;;;;;8.05;4.60;;;11.40;85.10;;;;;;4969058;28;113606;-51
2024/03/02 08:10:11;;;;;;;10.60;5.00;;;11.50;84.90;;;;;;4970559;28;112965;-50
2024/03/02 08:12:36;;;;;;;10.75;5.22;;;11.60;84.40;;;;;;4970225;28;112686;-49
2024/03/02 08:15:02;;;;;;;8.77;5.22;;;11.60;84.60;;;;;;4969076;28;113292;-51
2024/03/02 08:17:28;;;;;;;6.70;4.68;;;11.50;84.50;;;;;;4978237;28;114103;-49
2024/03/02 08:19:54;;;;;;;8.10;4.85;;;11.50;84.90;;;;;;4989986;28;112610;-50
2024/03/02 08:22:20;;;;;;;9.23;4.68;;;11.50;84.70;;;;;;4990184;28;112747;-51
2024/03/02 08:24:46;;;;;;;7.00;4.60;;;11.70;85.80;;;;;;4988842;28;114497;-49
2024/03/02 08:27:12;;;;;;;6.35;4.38;;;12.00;84.50;;;;;;4988750;28;113292;-49
2024/03/02 08:29:38;;;;;;;8.75;4.88;;;12.10;84.00;;;;;;4989771;28;112984;-49
2024/03/02 08:32:04;;;;;;;9.98;4.82;;;12.10;83.80;;;;;;4989690;28;112911;-50
2024/03/02 08:34:30;;;;;;;9.45;4.97;;;11.90;84.10;;;;;;4988489;28;115247;-52
2024/03/02 08:36:56;;;;;;;10.40;5.00;;;11.90;84.60;;;;;;4988778;28;112776;-51
2024/03/02 08:39:22;;;;;;;8.50;4.80;;;11.80;84.70;;;;;;4979739;28;112857;-51
2024/03/02 08:41:48;;;;;;;7.93;5.07;;;11.80;84.50;;;;;;4970525;28;112801;-50
2024/03/02 08:44:14;;;;;;;7.32;5.07;;;11.80;84.80;;;;;;4970904;28;113097;-53
2024/03/02 08:46:40;;;;;;;9.43;5.05;;;11.90;84.60;;;;;;4972978;28;113025;-51
2024/03/02 08:49:06;;;;;;;8.20;5.20;;;11.90;84.50;;;;;;4976594;28;112804;-50
2024/03/02 08:51:32;;;;;;;7.78;5.25;;;12.00;84.10;;;;;;4975085;28;112865;-51
2024/03/02 08:53:58;;;;;;;8.10;5.22;;;12.00;84.60;;;;;;4968683;28;113614;-50
2024/03/02 08:56:25;;;;;;;6.82;4.65;;;12.00;84.50;;;;;;4968888;28;112786;-50
2024/03/02 08:58:51;;;;;;;8.18;4.57;;;12.00;84.70;;;;;;4969278;28;113006;-50
2024/03/02 09:01:18;;;;;;;6.10;4.53;;;12.10;84.60;;;;;;4969494;28;113108;-52
2024/03/02 09:03:46;;;;;;;8.35;4.55;;;11.90;84.30;;;;;;4970984;28;113163;-50
2024/03/02 09:06:13;;;;;;;6.80;4.00;;;11.90;84.40;;;;;;4972986;28;113397;-50
2024/03/02 09:08:39;;;;;;;8.07;4.15;;;11.70;84.80;;;;;;4975537;28;112908;-49
2024/03/02 09:11:08;;;;;;;5.32;3.97;;;11.80;85.00;;;;;;4978175;28;112737;-51
2024/03/02 09:13:34;;;;;;;7.63;4.63;;;11.70;85.00;;;;;;4977437;28;113190;-50
2024/03/02 09:16:00;;;;;;;7.05;4.55;;;11.80;84.70;;;;;;4972482;28;113752;-49
2024/03/02 09:18:25;;;;;;;7.47;4.40;;;11.70;85.00;;;;;;4983106;28;112577;-51
2024/03/02 09:20:51;;;;;;;5.05;4.35;;;11.70;85.30;;;;;;4969364;28;113130;-51
2024/03/02 09:23:17;;;;;;;9.95;5.40;;;11.80;85.20;;;;;;4973902;28;113304;-50
2024/03/02 09:25:42;;;;;;;7.25;5.78;;;11.90;84.90;;;;;;4968161;28;112891;-50
2024/03/02 09:28:08;;;;;;;10.32;6.15;;;11.80;84.90;;;;;;4970414;28;112876;-51
2024/03/02 09:30:34;;;;;;;7.68;5.05;;;11.80;85.20;;;;;;4971219;28;113165;-49
2024/03/02 09:32:59;;;;;;;8.57;5.32;;;11.70;85.20;;;;;;4984102;28;114618;-49
2024/03/02 09:35:25;;;;;;;9.18;5.00;;;11.70;85.80;;;;;;4988942;28;113741;-52
2024/03/02 09:37:51;;;;;;;8.40;6.40;;;11.90;85.60;;;;;;4977536;28;113117;-50
2024/03/02 09:40:17;;;;;;;11.45;6.55;;;11.90;85.70;;;;;;4991543;28;112691;-50
2024/03/02 09:42:43;;;;;;;8.82;6.75;;;12.00;85.60;;;;;;4980236;28;113986;-49
2024/03/02 09:45:10;;;;;;;9.68;6.25;;;12.10;85.30;;;;;;4966875;28;113601;-50
2024/03/02 09:47:36;;;;;;;7.20;4.97;;;12.00;85.40;;;;;;4967108;28;113078;-49
2024/03/02 09:50:01;;;;;;;8.30;4.82;;;11.90;85.50;;;;;;4966517;28;112942;-51
2024/03/02 09:52:27;;;;;;;5.28;4.45;;;12.00;85.60;;;;;;4965214;28;113143;-49
2024/03/02 09:54:53;;;;;;;8.10;4.50;;;12.20;85.00;;;;;;4965359;28;113181;-49
2024/03/02 09:57:19;;;;;;;5.32;4.50;;;12.40;85.00;;;;;;4966427;28;112600;-51
2024/03/02 09:59:45;;;;;;;14.32;8.25;;;12.50;84.80;;;;;;4967437;28;113020;-50
2024/03/02 10:02:11;;;;;;;10.07;6.50;;;12.60;84.40;;;;;;4966937;28;113572;-50
2024/03/02 10:04:36;;;;;;;11.23;5.40;;;12.50;84.90;;;;;;4967049;28;113351;-49
2024/03/02 10:07:13;;;;;;;11.10;5.35;;;12.70;84.70;;;;;;4968716;28;112781;-49
2024/03/02 10:09:40;;;;;;;7.10;5.47;;;12.60;84.90;;;;;;4968390;28;112766;-51
2024/03/02 10:12:08;;;;;;;10.90;6.13;;;12.40;85.10;;;;;;4967443;28;114428;-52
2024/03/02 10:14:34;;;;;;;7.55;5.13;;;12.40;85.60;;;;;;4967108;28;114453;-49
2024/03/02 10:17:05;;;;;;;10.90;5.70;;;12.40;85.30;;;;;;4973772;28;112601;-52
2024/03/02 10:19:37;;;;;;;6.68;4.93;;;12.30;85.70;;;;;;4988267;28;112710;-49
2024/03/02 10:22:05;;;;;;;6.90;4.57;;;12.40;85.20;;;;;;4987299;28;113213;-49
2024/03/02 10:24:45;;;;;;;8.68;4.65;;;12.40;85.10;;;;;;4987194;28;112844;-50
2024/03/02 10:27:16;;;;;;;8.38;4.95;;;12.40;85.30;;;;;;4987964;28;112904;-50
2024/03/02 10:29:42;;;;;;;8.88;5.43;;;12.30;85.50;;;;;;4988357;28;112722;-50
2024/03/02 10:32:11;;;;;;;8.43;4.97;;;12.30;85.80;;;;;;4986773;28;114542;-50
2024/03/02 10:34:40;;;;;;;6.38;4.03;;;12.40;85.70;;;;;;4987164;28;112796;-53
2024/03/02 10:37:07;;;;;;;4.57;3.72;;;12.40;85.10;;;;;;4987867;28;112957;-49
2024/03/02 10:39:35;;;;;;;7.22;4.00;;;12.30;85.00;;;;;;4988157;28;112829;-52
2024/03/02 10:42:03;;;;;;;8.70;5.30;;;12.30;85.00;;;;;;4986640;28;113734;-50
2024/03/02 10:44:30;;;;;;;7.95;4.47;;;12.20;85.60;;;;;;4986951;28;112551;-50
2024/03/02 10:46:56;;;;;;;5.35;4.20;;;12.30;85.30;;;;;;4987593;28;112611;-49
2024/03/02 10:49:25;;;;;;;6.00;3.75;;;12.30;84.80;;;;;;4987784;28;112874;-50
2024/03/02 10:51:50;;;;;;;7.47;4.60;;;12.20;85.20;;;;;;4986530;28;114922;-49
2024/03/02 10:54:18;;;;;;;8.00;6.40;;;12.30;85.30;;;;;;4986615;28;112762;-49
2024/03/02 10:56:46;;;;;;;8.85;6.07;;;12.20;85.10;;;;;;4987871;28;112711;-50
2024/03/02 10:59:26;;;;;;;9.65;8.45;;;12.10;85.60;;;;;;4987811;28;112669;-50
2024/03/02 11:01:58;;;;;;;10.13;8.80;;;12.10;85.60;;;;;;4986958;28;113340;-50
2024/03/02 11:04:26;;;;;;;8.57;7.00;;;12.20;85.70;;;;;;4986539;28;114082;-52
2024/03/02 11:06:52;;;;;;;8.80;7.05;;;12.10;85.80;;;;;;4988257;28;112754;-49
2024/03/02 11:09:25;;;;;;;11.50;6.40;;;12.30;85.60;;;;;;4991318;28;113044;-50
2024/03/02 11:12:15;;;;;;;11.75;9.02;;;12.20;85.30;;;;;;4990429;28;113865;-49
2024/03/02 11:14:44;;;;;;;12.35;7.75;;;12.40;85.20;;;;;;4989603;28;113734;-50
2024/03/02 11:17:13;;;;;;;10.43;7.75;;;12.40;84.80;;;;;;4977861;28;112481;-53
2024/03/02 11:19:40;;;;;;;7.90;6.50;;;12.40;85.20;;;;;;4990928;28;112867;-50
2024/03/02 11:22:06;;;;;;;7.82;6.97;;;12.50;84.90;;;;;;4989539;28;114656;-52
2024/03/02 11:24:33;;;;;;;8.68;7.40;;;12.40;85.20;;;;;;4989965;28;112922;-50
2024/03/02 11:27:05;;;;;;;10.30;7.22;;;12.50;85.10;;;;;;4990873;28;112636;-50
2024/03/02 11:29:40;;;;;;;8.07;6.40;;;12.50;84.90;;;;;;4991122;28;112706;-51
2024/03/02 11:32:14;;;;;;;10.77;6.38;;;12.50;84.70;;;;;;4989768;28;113415;-49
2024/03/02 11:34:46;;;;;;;11.40;7.25;;;12.50;84.80;;;;;;4989924;28;113212;-49
2024/03/02 11:37:13;;;;;;;10.75;7.07;;;12.50;84.50;;;;;;4991203;28;112905;-49
2024/03/02 11:39:39;;;;;;;12.18;7.13;;;12.50;84.90;;;;;;4990688;28;112775;-49
2024/03/02 11:42:11;;;;;;;9.57;7.47;;;12.50;84.90;;;;;;4989236;28;114367;-50
2024/03/02 11:44:38;;;;;;;9.55;7.15;;;12.50;85.00;;;;;;4989355;28;114765;-49
2024/03/02 11:47:10;;;;;;;11.98;6.88;;;12.50;85.10;;;;;;4990348;28;112906;-51
2024/03/02 11:49:39;;;;;;;9.77;6.80;;;12.50;84.70;;;;;;4990659;28;112865;-49
2024/03/02 11:52:07;;;;;;;8.55;7.65;;;12.70;84.90;;;;;;4989187;28;113225;-49
2024/03/02 11:54:37;;;;;;;7.85;6.60;;;12.70;84.90;;;;;;4989410;28;113672;-52
2024/03/02 11:57:04;;;;;;;8.15;6.78;;;12.70;84.70;;;;;;4990456;28;112907;-50
2024/03/02 11:59:30;;;;;;;8.93;6.65;;;12.80;84.90;;;;;;4990437;28;112768;-50
2024/03/02 12:01:56;;;;;;;9.18;6.10;;;12.90;84.60;;;;;;4989307;28;114659;-49
2024/03/02 12:04:25;;;;;;;12.13;6.90;;;13.00;84.70;;;;;;4989169;28;113824;-50
2024/03/02 12:07:01;;;;;;;11.27;6.47;;;13.10;84.20;;;;;;4983412;28;113163;-50
2024/03/02 12:09:28;;;;;;;6.80;5.97;;;13.30;84.20;;;;;;4970114;28;113156;-49
2024/03/02 12:12:07;;;;;;;9.30;6.03;;;13.50;83.80;;;;;;4968994;28;114533;-50
2024/03/02 12:14:35;;;;;;;5.88;5.13;;;13.40;83.50;;;;;;4968937;28;114031;-50
2024/03/02 12:17:02;;;;;;;7.40;6.55;;;13.30;83.30;;;;;;4978436;28;112789;-54
2024/03/02 12:19:29;;;;;;;9.77;6.80;;;13.40;83.60;;;;;;4969709;28;113190;-50
2024/03/02 12:21:58;;;;;;;7.07;5.32;;;13.20;84.10;;;;;;4975956;28;114594;-49
2024/03/02 12:24:26;;;;;;;8.20;4.82;;;13.00;84.20;;;;;;4985357;28;114336;-48
2024/03/02 12:26:53;;;;;;;7.70;5.15;;;12.90;84.30;;;;;;4988781;28;112592;-49
2024/03/02 12:29:24;;;;;;;9.52;4.90;;;13.20;84.20;;;;;;4972066;28;113067;-50
2024/03/02 12:31:50;;;;;;;7.88;5.22;;;13.40;83.90;;;;;;4975413;28;113206;-52
2024/03/02 12:34:18;;;;;;;7.95;4.53;;;13.40;83.60;;;;;;4973561;28;112690;-49
2024/03/02 12:36:47;;;;;;;7.88;5.95;;;13.40;83.30;;;;;;4979604;28;112851;-49
2024/03/02 12:39:13;;;;;;;7.53;5.00;;;13.50;83.10;;;;;;4978409;28;112980;-49